UUOO/VOZ METAR and TAF weather

Enter ICAO airport designator
Station Type Date Time Source
UUOO METAR 2019/05/26 23:00 UTC NOAA

UUOO 262300Z 28003MPS 9000 NSC 14/13 Q1008 R30/090070 NOSIG RMK QFE742


Station Type Date Time Source
UUOO Decoded METAR 2019/05/26 23:00 UTC NOAA

Voronez, Russia (UUOO) 51-39N 039-15E 104M
May 26, 2019 - 07:00 PM EDT / 2019.05.26 2300 UTC
Wind: from the W (280 degrees) at 7 MPH (6 KT):0
Visibility: 5 mile(s):0
Temperature: 57 F (14 C)
Dew Point: 55 F (13 C)
Relative Humidity: 93%
Pressure (altimeter): 29.77 in. Hg (1008 hPa)
ob: UUOO 262300Z 28003MPS 9000 NSC 14/13 Q1008 R30/090070 NOSIG RMK QFE742
cycle: 23

Station Type Date Time Source
UUOO TAF 2018/12/04 17:51 UTC NOAA

TAF
AMD TAF
AMD UUOO 041549Z 0417/0524 14004MPS 0600 FZFG VV002
TEMPO 0418/0421 1400 FZDZ BR VV002

Example: see airport list